createdAt,value
2023-05-22T00:08:18.338Z,3.15
2023-05-22T00:19:19.690Z,3.15
2023-05-22T00:30:16.624Z,3.15
2023-05-22T00:41:16.212Z,3.15
2023-05-22T00:52:16.652Z,3.14
2023-05-22T01:03:17.134Z,3.14
2023-05-22T01:14:16.807Z,3.14
2023-05-22T01:25:16.308Z,3.13
2023-05-22T01:36:16.795Z,3.13
2023-05-22T01:47:15.413Z,3.13
2023-05-22T01:58:15.898Z,3.13
2023-05-22T02:09:14.498Z,3.12
2023-05-22T02:20:15.696Z,3.12
2023-05-22T02:31:15.273Z,3.12
2023-05-22T02:42:04.797Z,3.11
2023-05-22T02:53:02.702Z,3.11
2023-05-22T03:04:03.285Z,3.10
2023-05-22T03:15:03.321Z,3.10
2023-05-22T03:26:02.777Z,3.10
2023-05-22T03:37:02.890Z,3.10
2023-05-22T03:48:04.788Z,3.10
2023-05-22T03:59:07.477Z,3.10
2023-05-22T04:10:07.281Z,3.11
2023-05-22T04:21:05.220Z,3.11
2023-05-22T04:31:59.931Z,3.12
2023-05-22T04:42:59.956Z,3.13
2023-05-22T04:54:00.994Z,3.14
2023-05-22T05:05:01.804Z,3.15
2023-05-22T05:16:04.366Z,3.17
2023-05-22T05:27:05.488Z,3.18
2023-05-22T05:38:06.006Z,3.19
2023-05-22T05:49:05.404Z,3.21
2023-05-22T06:00:02.681Z,3.23
2023-05-22T06:10:58.813Z,3.25
2023-05-22T06:21:59.861Z,3.25
2023-05-22T06:33:01.013Z,3.27
2023-05-22T06:43:57.321Z,3.29
2023-05-22T06:54:52.336Z,3.30
2023-05-22T07:05:44.834Z,3.32
2023-05-22T07:16:46.290Z,3.34
2023-05-22T07:27:43.306Z,3.34
2023-05-22T07:38:43.837Z,3.37
2023-05-22T07:49:44.657Z,3.38
2023-05-22T08:00:42.723Z,3.37
2023-05-22T08:11:41.459Z,3.36
2023-05-22T08:22:38.987Z,3.36
2023-05-22T08:33:40.621Z,3.36
2023-05-22T08:44:37.039Z,3.35
2023-05-22T08:55:36.001Z,3.35
2023-05-22T09:06:36.828Z,3.36
2023-05-22T09:17:31.746Z,3.36
2023-05-22T09:28:26.274Z,3.36
2023-05-22T09:39:27.018Z,3.35
2023-05-22T09:50:20.831Z,3.35
2023-05-22T10:01:19.240Z,3.36
2023-05-22T10:12:20.222Z,3.35
2023-05-22T10:23:11.640Z,3.36
2023-05-22T10:34:12.528Z,3.37
2023-05-22T10:45:11.201Z,3.36
2023-05-22T10:56:11.155Z,3.36
2023-05-22T11:07:00.731Z,3.36
2023-05-22T11:18:00.451Z,3.36
2023-05-22T11:29:00.181Z,3.36
2023-05-22T11:39:55.093Z,3.34
2023-05-22T11:50:58.003Z,3.36
2023-05-22T12:01:55.486Z,3.35
2023-05-22T12:12:56.082Z,3.36
2023-05-22T12:23:58.889Z,3.36
2023-05-22T12:34:41.192Z,3.37
2023-05-22T12:45:38.067Z,3.37
2023-05-22T12:56:37.674Z,3.37
2023-05-22T13:07:32.134Z,3.37
2023-05-22T13:18:21.043Z,3.36
2023-05-22T13:29:12.127Z,3.36
2023-05-22T13:39:58.947Z,3.37
2023-05-22T13:50:35.638Z,3.37
2023-05-22T14:01:34.692Z,3.37
2023-05-22T14:12:31.170Z,3.36
2023-05-22T14:23:30.753Z,3.36
2023-05-22T14:34:32.057Z,3.37
2023-05-22T14:45:31.763Z,3.36
2023-05-22T14:56:32.874Z,3.37
2023-05-22T15:07:43.093Z,3.36
2023-05-22T15:18:23.572Z,3.36
2023-05-22T15:29:22.446Z,3.36
2023-05-22T15:40:00.999Z,3.36
2023-05-22T15:50:58.577Z,3.36
2023-05-22T16:01:52.439Z,3.36
2023-05-22T16:12:26.107Z,3.36
2023-05-22T16:23:24.915Z,3.38
2023-05-22T16:33:58.116Z,3.38
2023-05-22T16:44:50.730Z,3.38
2023-05-22T16:55:49.266Z,3.37
2023-05-22T17:06:31.784Z,3.37
2023-05-22T17:17:23.968Z,3.38
2023-05-22T17:27:59.296Z,3.38
2023-05-22T17:38:56.546Z,3.39
2023-05-22T17:49:54.111Z,3.39
2023-05-22T18:00:52.506Z,3.39
2023-05-22T18:11:51.969Z,3.38
2023-05-22T18:22:51.551Z,3.36
2023-05-22T18:33:52.277Z,3.34
2023-05-22T18:44:51.288Z,3.33
2023-05-22T18:55:52.173Z,3.32
2023-05-22T19:06:42.726Z,3.31
2023-05-22T19:17:42.070Z,3.30
2023-05-22T19:28:37.839Z,3.30
2023-05-22T19:39:35.049Z,3.29
2023-05-22T19:50:31.112Z,3.29
2023-05-22T20:01:26.685Z,3.28
2023-05-22T20:12:19.076Z,3.27
2023-05-22T20:23:19.405Z,3.27
2023-05-22T20:34:19.498Z,3.26
2023-05-22T20:45:20.472Z,3.26
2023-05-22T20:56:20.209Z,3.25
2023-05-22T21:07:20.593Z,3.25
2023-05-22T21:18:16.885Z,3.24
2023-05-22T21:29:16.336Z,3.23
2023-05-22T21:40:16.255Z,3.23
2023-05-22T21:51:09.968Z,3.23
2023-05-22T22:02:11.117Z,3.22
2023-05-22T22:13:10.647Z,3.22
2023-05-22T22:24:10.501Z,3.21
2023-05-22T22:35:11.558Z,3.21
2023-05-22T22:46:11.817Z,3.21
2023-05-22T22:57:11.835Z,3.20
2023-05-22T23:08:08.709Z,3.19
2023-05-22T23:19:07.585Z,3.19
2023-05-22T23:30:08.623Z,3.19
2023-05-22T23:40:57.159Z,3.18
2023-05-22T23:51:34.435Z,3.17
